Latest Coastal Weather Observations for Point Stuart

IDD60701

Issued at 8:11 am CST Thursday 5 March 2015 (issued every 10 minutes, with the page automatically refreshed every 10 minutes)

About coastal observations | Map of coastal stations | Coastal observations for NT | Marine services | Other Formats
Station Details ID: 014254 Name: POINT STUART Lat: -12.24 Lon: 131.88 Height: 1.0 m
Data from the previous 72 hours. | See also: Recent months for locations in Northern Territory
Date/Time
CST
Temp

°C
Wind Pressure Rain
since 9am
mm
Weather Cloud Vis
km
Sea
Height
m
Swell
Dir
 
Speed
knots
Gust
knots
hPa Trend Height
m
Period
s
Dir
05/08:00am 27.2 S 6 7 1008.5 - 0.0 - - - - - - -
05/07:30am 26.7 S 7 9 1008.4 - 0.0 - - - - - - -
05/07:00am 26.6 SSE 4 6 1008.3 - 0.0 - - - - - - -
05/06:30am 26.8 SSW 6 8 1008.2 - 0.0 - - - - - - -
05/06:00am 26.6 SW 4 5 1008.0 - 0.0 - - - - - - -
05/05:30am 26.7 W 5 6 1007.7 - 0.0 - - - - - - -
05/05:00am 27.0 SSW 5 6 1007.8 - 0.0 - - - - - - -
05/04:30am 27.1 SW 5 7 1007.5 - 0.0 - - - - - - -
05/04:00am 27.0 WSW 4 5 1007.2 - 0.0 - - - - - - -
05/03:30am 27.2 CALM 0 0 1007.0 - 0.0 - - - - - - -
05/03:00am 27.3 S 3 4 1007.3 - 0.0 - - - - - - -
05/02:30am 27.1 WSW 3 3 1007.4 - 0.0 - - - - - - -
05/02:00am 27.2 SW 3 4 1007.8 - 0.0 - - - - - - -
05/01:30am 27.3 SW 2 3 1007.9 - 0.0 - - - - - - -
05/01:00am 27.3 SW 4 5 1008.4 - 0.0 - - - - - - -
05/12:30am 27.4 WSW 3 4 1008.7 - 0.0 - - - - - - -
05/12:00am 27.6 CALM 0 0 1009.0 - 0.0 - - - - - - -
 
Date/Time
CST
Temp

°C
Wind Pressure Rain
since 9am
mm
Weather Cloud Vis
km
Sea
Height
m
Swell
Dir
 
Speed
knots
Gust
knots
hPa Trend Height
m
Period
s
Dir
04/11:30pm 27.6 CALM 0 0 1009.4 - 0.0 - - - - - - -
04/11:00pm 27.7 NW 3 5 1009.3 - 0.0 - - - - - - -
04/10:30pm 27.9 NW 4 6 1009.1 - 0.0 - - - - - - -
04/10:00pm 28.2 NW 6 8 1008.9 - 0.0 - - - - - - -
04/09:30pm 28.1 NW 7 9 1008.5 - 0.0 - - - - - - -
04/09:00pm 28.4 NW 6 8 1008.4 - 0.0 - - - - - - -
04/08:30pm 28.4 NNW 6 10 1008.1 - 0.0 - - - - - - -
04/08:00pm 28.6 NNW 7 9 1007.8 - 0.0 - - - - - - -
04/07:30pm 28.8 NNW 5 9 1007.4 - 0.0 - - - - - - -
04/07:00pm 29.2 NNW 6 11 1006.8 - 0.0 - - - - - - -
04/06:30pm 30.0 NNW 7 11 1006.6 - 0.0 - - - - - - -
04/06:00pm 30.4 N 7 10 1006.3 - 0.0 - - - - - - -
04/05:30pm 30.7 N 6 11 1006.1 - 0.0 - - - - - - -
04/05:00pm 31.0 N 6 9 1005.9 - 0.0 - - - - - - -
04/04:30pm 31.2 N 5 8 1005.9 - 0.0 - - - - - - -
04/04:00pm 31.5 N 5 7 1005.6 - 0.0 - - - - - - -
04/03:30pm 31.1 NE 6 9 1005.5 - 0.0 - - - - - - -
04/03:00pm 31.8 NNW 3 6 1005.7 - 0.0 - - - - - - -
04/02:30pm 31.2 NNE 4 7 1006.3 - 0.0 - - - - - - -
04/02:00pm 31.1 NNW 6 10 1006.6 - 0.0 - - - - - - -
04/01:30pm 31.3 NW 5 8 1007.2 - 0.0 - - - - - - -
04/01:00pm 31.1 NNW 3 6 1007.4 - 0.0 - - - - - - -
04/12:30pm 30.9 NNW 5 9 1008.0 - 0.0 - - - - - - -
04/12:00pm 30.6 NNW 6 9 1008.5 - 0.0 - - - - - - -
04/11:30am 29.9 NNW 3 7 1008.6 - 0.0 - - - - - - -
04/11:00am 30.3 WSW 3 5 1008.8 - 0.0 - - - - - - -
04/10:30am 28.8 WNW 4 6 1009.1 - 0.0 - - - - - - -
04/10:00am 29.8 NE 1 3 1008.9 - 0.0 - - - - - - -
04/09:30am 29.0 CALM 0 0 1008.7 - 0.0 - - - - - - -
04/09:00am 28.3 SSE 2 4 1008.5 - 9.4 - - - - - - -
04/08:30am 27.5 SSE 4 5 1008.3 - 9.4 - - - - - - -
04/08:00am 26.5 SSE 4 6 1007.9 - 9.4 - - - - - - -
04/07:30am 26.1 S 3 6 1007.4 - 9.4 - - - - - - -
04/07:00am 25.7 SW 3 3 1007.2 - 9.4 - - - - - - -
04/06:30am 25.6 CALM 0 3 1006.9 - 9.4 - - - - - - -
04/06:00am 25.9 NNW 7 9 1006.6 - 9.4 - - - - - - -
04/05:30am 26.3 E 4 6 1006.5 - 8.4 - - - - - - -
04/05:00am 26.6 CALM 0 0 1006.0 - 7.2 - - - - - - -
04/04:30am 26.9 NW 3 6 1005.8 - 7.2 - - - - - - -
04/04:00am 26.8 NNW 3 5 1005.7 - 7.2 - - - - - - -
04/03:30am 26.7 N 3 4 1006.0 - 7.2 - - - - - - -
04/03:00am 26.5 N 3 5 1006.1 - 7.2 - - - - - - -
04/02:30am 26.5 NNE 4 5 1006.2 - 7.2 - - - - - - -
04/02:00am 26.3 NNE 3 5 1006.3 - 7.2 - - - - - - -
04/01:30am 26.6 NNE 4 6 1006.5 - 7.2 - - - - - - -
04/01:00am 26.6 N 4 6 1006.7 - 7.2 - - - - - - -
04/12:30am 26.7 N 5 7 1007.0 - 7.2 - - - - - - -
04/12:00am 26.1 ESE 3 5 1007.2 - 6.8 - - - - - - -
 
Date/Time
CST
Temp

°C
Wind Pressure Rain
since 9am
mm
Weather Cloud Vis
km
Sea
Height
m
Swell
Dir
 
Speed
knots
Gust
knots
hPa Trend Height
m
Period
s
Dir
03/11:30pm 26.1 SSE 4 5 1007.5 - 6.8 - - - - - - -
03/11:00pm 26.4 SE 2 3 1007.4 - 6.8 - - - - - - -
03/10:30pm 26.4 ESE 4 5 1007.4 - 6.8 - - - - - - -
03/10:00pm 26.3 CALM 0 0 1007.0 - 6.8 - - - - - - -
03/09:30pm 26.5 ESE 5 6 1006.7 - 6.8 - - - - - - -
03/09:00pm 26.5 ESE 5 7 1006.6 - 6.8 - - - - - - -
03/08:30pm 26.8 ENE 5 9 1006.7 - 6.8 - - - - - - -
03/08:00pm 26.2 NNE 3 5 1006.9 - 6.6 - - - - - - -
03/07:30pm 26.2 SE 4 5 1006.3 - 6.6 - - - - - - -
03/07:00pm 26.3 ESE 5 7 1005.8 - 6.6 - - - - - - -
03/06:30pm 25.9 NE 9 13 1005.5 - 6.4 - - - - - - -
03/06:00pm 27.2 ENE 4 6 1004.8 - 4.4 - - - - - - -
03/05:30pm 27.0 N 3 5 1004.6 - 3.6 - - - - - - -
03/05:00pm 27.8 NNE 5 9 1004.7 - 1.8 - - - - - - -
03/04:30pm 30.1 NNE 7 11 1004.1 - 1.0 - - - - - - -
03/04:00pm 30.1 NE 8 13 1004.3 - 1.0 - - - - - - -
03/03:30pm 30.0 NNE 7 11 1004.3 - 1.0 - - - - - - -
03/03:00pm 29.7 NE 10 14 1004.9 - 1.0 - - - - - - -
03/02:30pm 30.3 NNE 8 13 1005.2 - 1.0 - - - - - - -
03/02:00pm 30.1 NNE 9 13 1005.6 - 1.0 - - - - - - -
03/01:30pm 29.8 NE 11 15 1005.6 - 1.0 - - - - - - -
03/01:00pm 29.8 NE 12 17 1006.1 - 1.0 - - - - - - -
03/12:30pm 29.7 NE 13 16 1006.6 - 1.0 - - - - - - -
03/12:00pm 29.0 NE 13 18 1006.8 - 1.0 - - - - - - -
03/11:30am 28.8 ENE 10 15 1006.9 - 1.0 - - - - - - -
03/11:00am 27.3 NNE 5 8 1007.2 - 1.0 - - - - - - -
03/10:30am 26.7 NNE 5 7 1007.3 - 0.4 - - - - - - -
03/10:00am 26.4 E 7 10 1007.1 - 0.0 - - - - - - -
03/09:30am 27.2 E 8 11 1006.8 - 0.0 - - - - - - -
03/09:00am 27.3 E 10 13 1006.4 - 13.4 - - - - - - -
03/08:30am 26.2 ESE 9 12 1006.1 - 13.4 - - - - - - -
03/08:00am 25.7 ESE 8 10 1005.6 - 13.4 - - - - - - -
03/07:30am 25.2 ESE 7 9 1005.1 - 13.4 - - - - - - -
03/07:00am 24.7 SE 5 6 1004.8 - 13.4 - - - - - - -
03/06:30am 24.3 SE 4 5 1004.3 - 13.4 - - - - - - -
03/06:00am 24.3 CALM 0 3 1004.3 - 13.4 - - - - - - -
03/05:30am 24.4 ESE 3 4 1004.0 - 13.4 - - - - - - -
03/05:00am 24.5 SE 3 5 1003.7 - 13.4 - - - - - - -
03/04:30am 24.5 CALM 0 3 1003.6 - 13.4 - - - - - - -
03/04:00am 24.7 S 1 3 1003.7 - 13.4 - - - - - - -
03/03:30am 24.7 SSE 4 5 1003.9 - 13.4 - - - - - - -
03/03:00am 24.7 SSE 5 7 1003.9 - 13.4 - - - - - - -
03/02:30am 24.8 SE 1 3 1004.2 - 13.4 - - - - - - -
03/02:00am 25.0 CALM 0 3 1004.5 - 13.4 - - - - - - -
03/01:30am 25.0 SE 4 5 1004.5 - 13.4 - - - - - - -
03/01:00am 25.2 SSE 4 5 1004.7 - 13.4 - - - - - - -
03/12:30am 25.0 SW 4 6 1005.1 - 13.4 - - - - - - -
03/12:00am 25.2 WSW 3 4 1005.3 - 13.4 - - - - - - -
 
Date/Time
CST
Temp

°C
Wind Pressure Rain
since 9am
mm
Weather Cloud Vis
km
Sea
Height
m
Swell
Dir
 
Speed
knots
Gust
knots
hPa Trend Height
m
Period
s
Dir
02/11:30pm 25.2 SSW 4 5 1005.5 - 13.4 - - - - - - -
02/11:00pm 25.2 SW 4 5 1005.6 - 13.4 - - - - - - -
02/10:30pm 25.0 SW 6 7 1005.5 - 13.4 - - - - - - -
02/10:00pm 25.0 WSW 4 6 1005.2 - 13.4 - - - - - - -
02/09:30pm 25.1 SSW 6 8 1004.8 - 13.4 - - - - - - -
02/09:00pm 25.5 SW 6 9 1004.8 - 13.4 - - - - - - -
02/08:30pm 25.8 W 6 9 1004.5 - 13.4 - - - - - - -
02/08:00pm 25.8 WSW 6 8 1004.2 - 13.4 - - - - - - -
02/07:30pm 25.9 W 9 11 1004.2 - 13.4 - - - - - - -
02/07:00pm 25.4 WNW 6 9 1003.7 - 13.4 - - - - - - -
02/06:30pm 25.2 NW 7 10 1003.0 - 13.4 - - - - - - -
02/06:00pm 24.9 NW 6 14 1002.8 - 13.0 - - - - - - -
02/05:30pm 25.6 WNW 5 6 1003.1 - 9.0 - - - - - - -
02/05:00pm 25.7 W 9 12 1002.8 - 6.6 - - - - - - -
02/04:30pm 25.9 WNW 13 17 1002.6 - 6.2 - - - - - - -
02/04:00pm 26.4 W 13 18 1002.9 - 5.4 - - - - - - -
02/03:30pm 26.0 W 13 19 1002.8 - 3.6 - - - - - - -
02/03:00pm 27.2 WNW 14 17 1002.8 - 2.0 - - - - - - -
02/02:30pm 28.7 NW 11 17 1002.7 - 1.4 - - - - - - -
02/02:00pm 28.4 WNW 9 13 1003.7 - 1.4 - - - - - - -
02/01:30pm 28.8 WNW 9 14 1004.1 - 1.4 - - - - - - -
02/01:00pm 30.5 S 5 8 1004.5 - 1.4 - - - - - - -
02/12:30pm 29.9 S 7 8 1004.8 - 1.4 - - - - - - -
02/12:00pm 29.8 S 7 9 1005.4 - 1.4 - - - - - - -
02/11:30am 29.2 S 7 9 1005.6 - 1.4 - - - - - - -
02/11:00am 28.5 S 7 9 1006.0 - 1.4 - - - - - - -
02/10:30am 28.0 S 7 9 1005.9 - 1.4 - - - - - - -
02/10:00am 27.0 S 6 7 1006.3 - 1.2 - - - - - - -
02/09:30am 26.8 SE 8 10 1006.9 - 0.4 - - - - - - -
02/09:00am 27.0 SSE 6 7 1006.9 - 3.6 - - - - - - -
02/08:30am 27.0 SSE 8 11 1006.4 - 3.6 - - - - - - -

Other Formats:

Comma delimited format used in spreadsheet applications
http://www.bom.gov.au/fwo/IDD60701/IDD60701.94127.axf

JavaScript Object Notation format (JSON) in row-major order
http://www.bom.gov.au/fwo/IDD60701/IDD60701.94127.json